sensor_id;sensor_type;location;lat;lon;timestamp;P1;durP1;ratioP1;P2;durP2;ratioP2
14040;SDS011;7095;51.388;6.196;2023-11-19T00:00:19;8.60;;;7.70;;
14040;SDS011;7095;51.388;6.196;2023-11-19T00:02:48;10.83;;;7.70;;
14040;SDS011;7095;51.388;6.196;2023-11-19T00:05:18;10.93;;;7.40;;
14040;SDS011;7095;51.388;6.196;2023-11-19T00:07:46;10.00;;;8.50;;
14040;SDS011;7095;51.388;6.196;2023-11-19T00:10:15;10.23;;;8.80;;
14040;SDS011;7095;51.388;6.196;2023-11-19T00:12:46;8.87;;;7.97;;
14040;SDS011;7095;51.388;6.196;2023-11-19T00:15:15;10.00;;;8.30;;
14040;SDS011;7095;51.388;6.196;2023-11-19T00:17:46;10.03;;;8.07;;
14040;SDS011;7095;51.388;6.196;2023-11-19T00:20:16;11.57;;;8.67;;
14040;SDS011;7095;51.388;6.196;2023-11-19T00:22:46;14.53;;;9.33;;
14040;SDS011;7095;51.388;6.196;2023-11-19T00:25:16;9.90;;;8.43;;
14040;SDS011;7095;51.388;6.196;2023-11-19T00:27:45;13.50;;;9.10;;
14040;SDS011;7095;51.388;6.196;2023-11-19T00:30:13;12.27;;;9.40;;
14040;SDS011;7095;51.388;6.196;2023-11-19T00:32:42;15.93;;;10.20;;
14040;SDS011;7095;51.388;6.196;2023-11-19T00:35:10;12.83;;;9.93;;
14040;SDS011;7095;51.388;6.196;2023-11-19T00:37:41;15.40;;;10.13;;
14040;SDS011;7095;51.388;6.196;2023-11-19T00:40:14;14.67;;;10.20;;
14040;SDS011;7095;51.388;6.196;2023-11-19T00:42:45;12.43;;;10.33;;
14040;SDS011;7095;51.388;6.196;2023-11-19T00:45:14;13.37;;;10.93;;
14040;SDS011;7095;51.388;6.196;2023-11-19T00:47:42;15.20;;;11.70;;
14040;SDS011;7095;51.388;6.196;2023-11-19T00:50:11;10.50;;;8.63;;
14040;SDS011;7095;51.388;6.196;2023-11-19T00:52:40;12.03;;;8.70;;
14040;SDS011;7095;51.388;6.196;2023-11-19T00:55:08;16.13;;;9.63;;
14040;SDS011;7095;51.388;6.196;2023-11-19T00:57:40;11.43;;;9.17;;
14040;SDS011;7095;51.388;6.196;2023-11-19T01:00:09;11.70;;;8.83;;
14040;SDS011;7095;51.388;6.196;2023-11-19T01:02:46;9.57;;;8.50;;
14040;SDS011;7095;51.388;6.196;2023-11-19T01:05:18;10.90;;;8.13;;
14040;SDS011;7095;51.388;6.196;2023-11-19T01:07:50;11.20;;;9.13;;
14040;SDS011;7095;51.388;6.196;2023-11-19T01:10:21;10.67;;;8.70;;
14040;SDS011;7095;51.388;6.196;2023-11-19T01:12:51;10.97;;;8.40;;
14040;SDS011;7095;51.388;6.196;2023-11-19T01:15:20;9.17;;;8.27;;
14040;SDS011;7095;51.388;6.196;2023-11-19T01:17:49;9.57;;;7.80;;
14040;SDS011;7095;51.388;6.196;2023-11-19T01:20:19;11.40;;;8.43;;
14040;SDS011;7095;51.388;6.196;2023-11-19T01:22:48;10.67;;;8.17;;
14040;SDS011;7095;51.388;6.196;2023-11-19T01:25:16;12.30;;;8.77;;
14040;SDS011;7095;51.388;6.196;2023-11-19T01:27:45;8.70;;;7.63;;
14040;SDS011;7095;51.388;6.196;2023-11-19T01:30:14;8.77;;;7.50;;
14040;SDS011;7095;51.388;6.196;2023-11-19T01:32:42;12.60;;;7.70;;
14040;SDS011;7095;51.388;6.196;2023-11-19T01:35:11;10.93;;;7.30;;
14040;SDS011;7095;51.388;6.196;2023-11-19T01:37:39;10.37;;;7.60;;
14040;SDS011;7095;51.388;6.196;2023-11-19T01:40:08;10.57;;;7.30;;
14040;SDS011;7095;51.388;6.196;2023-11-19T01:42:38;9.63;;;6.77;;
14040;SDS011;7095;51.388;6.196;2023-11-19T01:45:07;11.73;;;6.23;;
14040;SDS011;7095;51.388;6.196;2023-11-19T01:47:38;8.50;;;6.07;;
14040;SDS011;7095;51.388;6.196;2023-11-19T01:50:07;10.33;;;5.80;;
14040;SDS011;7095;51.388;6.196;2023-11-19T01:52:36;15.57;;;5.40;;
14040;SDS011;7095;51.388;6.196;2023-11-19T01:55:05;10.93;;;6.00;;
14040;SDS011;7095;51.388;6.196;2023-11-19T01:57:35;14.97;;;5.73;;
14040;SDS011;7095;51.388;6.196;2023-11-19T02:00:05;13.23;;;5.17;;
14040;SDS011;7095;51.388;6.196;2023-11-19T02:02:44;17.87;;;5.77;;
14040;SDS011;7095;51.388;6.196;2023-11-19T02:05:14;16.43;;;5.73;;
14040;SDS011;7095;51.388;6.196;2023-11-19T02:07:43;11.77;;;5.07;;
14040;SDS011;7095;51.388;6.196;2023-11-19T02:10:13;9.83;;;5.00;;
14040;SDS011;7095;51.388;6.196;2023-11-19T02:12:44;12.53;;;5.37;;
14040;SDS011;7095;51.388;6.196;2023-11-19T02:15:12;12.13;;;5.30;;
14040;SDS011;7095;51.388;6.196;2023-11-19T02:17:40;15.07;;;4.83;;
14040;SDS011;7095;51.388;6.196;2023-11-19T02:20:11;14.33;;;4.43;;
14040;SDS011;7095;51.388;6.196;2023-11-19T02:22:41;15.23;;;4.67;;
14040;SDS011;7095;51.388;6.196;2023-11-19T02:25:11;20.00;;;4.93;;
14040;SDS011;7095;51.388;6.196;2023-11-19T02:27:47;12.07;;;4.27;;
14040;SDS011;7095;51.388;6.196;2023-11-19T02:30:16;10.60;;;4.47;;
14040;SDS011;7095;51.388;6.196;2023-11-19T02:32:44;13.77;;;4.70;;
14040;SDS011;7095;51.388;6.196;2023-11-19T02:35:13;18.13;;;4.63;;
14040;SDS011;7095;51.388;6.196;2023-11-19T02:37:41;16.03;;;4.43;;
14040;SDS011;7095;51.388;6.196;2023-11-19T02:40:11;17.73;;;4.47;;
14040;SDS011;7095;51.388;6.196;2023-11-19T02:42:40;13.00;;;4.70;;
14040;SDS011;7095;51.388;6.196;2023-11-19T02:45:10;15.87;;;4.47;;
14040;SDS011;7095;51.388;6.196;2023-11-19T02:47:41;18.77;;;5.03;;
14040;SDS011;7095;51.388;6.196;2023-11-19T02:50:10;15.00;;;4.77;;
14040;SDS011;7095;51.388;6.196;2023-11-19T02:52:41;17.93;;;5.47;;
14040;SDS011;7095;51.388;6.196;2023-11-19T02:55:10;17.30;;;5.13;;
14040;SDS011;7095;51.388;6.196;2023-11-19T02:57:39;17.60;;;4.60;;
14040;SDS011;7095;51.388;6.196;2023-11-19T03:00:14;19.97;;;4.90;;
14040;SDS011;7095;51.388;6.196;2023-11-19T03:02:43;21.27;;;4.80;;
14040;SDS011;7095;51.388;6.196;2023-11-19T03:05:13;26.20;;;6.27;;
14040;SDS011;7095;51.388;6.196;2023-11-19T03:07:43;22.40;;;4.63;;
14040;SDS011;7095;51.388;6.196;2023-11-19T03:10:12;24.23;;;4.83;;
14040;SDS011;7095;51.388;6.196;2023-11-19T03:12:40;27.70;;;5.30;;
14040;SDS011;7095;51.388;6.196;2023-11-19T03:15:09;19.57;;;4.97;;
14040;SDS011;7095;51.388;6.196;2023-11-19T03:17:39;24.20;;;4.73;;
14040;SDS011;7095;51.388;6.196;2023-11-19T03:20:09;25.03;;;5.80;;
14040;SDS011;7095;51.388;6.196;2023-11-19T03:22:41;25.80;;;5.17;;
14040;SDS011;7095;51.388;6.196;2023-11-19T03:25:10;20.17;;;4.47;;
14040;SDS011;7095;51.388;6.196;2023-11-19T03:27:40;21.77;;;4.43;;
14040;SDS011;7095;51.388;6.196;2023-11-19T03:30:09;18.97;;;4.67;;
14040;SDS011;7095;51.388;6.196;2023-11-19T03:32:40;29.97;;;5.70;;
14040;SDS011;7095;51.388;6.196;2023-11-19T03:35:08;26.53;;;5.40;;
14040;SDS011;7095;51.388;6.196;2023-11-19T03:37:37;26.33;;;5.33;;
14040;SDS011;7095;51.388;6.196;2023-11-19T03:40:06;24.87;;;5.03;;
14040;SDS011;7095;51.388;6.196;2023-11-19T03:42:35;27.83;;;5.23;;
14040;SDS011;7095;51.388;6.196;2023-11-19T03:45:03;28.60;;;4.60;;
14040;SDS011;7095;51.388;6.196;2023-11-19T03:47:32;22.50;;;4.53;;
14040;SDS011;7095;51.388;6.196;2023-11-19T03:50:02;30.23;;;4.93;;
14040;SDS011;7095;51.388;6.196;2023-11-19T03:52:31;26.33;;;5.70;;
14040;SDS011;7095;51.388;6.196;2023-11-19T03:55:10;30.23;;;5.57;;
14040;SDS011;7095;51.388;6.196;2023-11-19T03:57:39;23.13;;;5.33;;
14040;SDS011;7095;51.388;6.196;2023-11-19T04:00:08;22.97;;;5.90;;
14040;SDS011;7095;51.388;6.196;2023-11-19T04:02:39;32.43;;;5.83;;
14040;SDS011;7095;51.388;6.196;2023-11-19T04:05:09;36.70;;;6.30;;
14040;SDS011;7095;51.388;6.196;2023-11-19T04:07:37;31.50;;;5.90;;
14040;SDS011;7095;51.388;6.196;2023-11-19T04:10:06;36.13;;;6.10;;
14040;SDS011;7095;51.388;6.196;2023-11-19T04:12:35;28.67;;;5.73;;
14040;SDS011;7095;51.388;6.196;2023-11-19T04:15:03;32.23;;;6.87;;
14040;SDS011;7095;51.388;6.196;2023-11-19T04:17:32;37.10;;;5.63;;
14040;SDS011;7095;51.388;6.196;2023-11-19T04:20:00;32.60;;;5.67;;
14040;SDS011;7095;51.388;6.196;2023-11-19T04:22:32;30.03;;;6.23;;
14040;SDS011;7095;51.388;6.196;2023-11-19T04:25:00;35.03;;;6.30;;
14040;SDS011;7095;51.388;6.196;2023-11-19T04:27:28;33.37;;;7.00;;
14040;SDS011;7095;51.388;6.196;2023-11-19T04:29:57;25.40;;;6.10;;
14040;SDS011;7095;51.388;6.196;2023-11-19T04:32:25;36.23;;;6.07;;
14040;SDS011;7095;51.388;6.196;2023-11-19T04:34:53;36.17;;;6.33;;
14040;SDS011;7095;51.388;6.196;2023-11-19T04:37:21;33.30;;;5.63;;
14040;SDS011;7095;51.388;6.196;2023-11-19T04:39:51;25.93;;;5.20;;
14040;SDS011;7095;51.388;6.196;2023-11-19T04:42:21;29.80;;;5.67;;
14040;SDS011;7095;51.388;6.196;2023-11-19T04:44:51;35.57;;;6.33;;
14040;SDS011;7095;51.388;6.196;2023-11-19T04:47:19;38.00;;;6.10;;
14040;SDS011;7095;51.388;6.196;2023-11-19T04:49:47;30.80;;;5.90;;
14040;SDS011;7095;51.388;6.196;2023-11-19T04:52:15;29.50;;;5.60;;
14040;SDS011;7095;51.388;6.196;2023-11-19T04:54:43;28.93;;;5.73;;
14040;SDS011;7095;51.388;6.196;2023-11-19T04:57:13;32.83;;;5.90;;
14040;SDS011;7095;51.388;6.196;2023-11-19T04:59:41;45.23;;;6.90;;
14040;SDS011;7095;51.388;6.196;2023-11-19T05:02:09;37.60;;;5.60;;
14040;SDS011;7095;51.388;6.196;2023-11-19T05:04:37;36.33;;;5.67;;
14040;SDS011;7095;51.388;6.196;2023-11-19T05:07:05;41.57;;;7.00;;
14040;SDS011;7095;51.388;6.196;2023-11-19T05:09:34;32.07;;;5.77;;
14040;SDS011;7095;51.388;6.196;2023-11-19T05:12:02;30.73;;;5.80;;
14040;SDS011;7095;51.388;6.196;2023-11-19T05:14:32;36.20;;;6.40;;
14040;SDS011;7095;51.388;6.196;2023-11-19T05:17:01;28.93;;;6.17;;
14040;SDS011;7095;51.388;6.196;2023-11-19T05:19:28;32.20;;;6.80;;
14040;SDS011;7095;51.388;6.196;2023-11-19T05:21:56;31.07;;;6.13;;
14040;SDS011;7095;51.388;6.196;2023-11-19T05:24:24;40.57;;;7.40;;
14040;SDS011;7095;51.388;6.196;2023-11-19T05:26:52;42.30;;;6.20;;
14040;SDS011;7095;51.388;6.196;2023-11-19T05:29:21;36.20;;;6.10;;
14040;SDS011;7095;51.388;6.196;2023-11-19T05:31:50;31.90;;;6.43;;
14040;SDS011;7095;51.388;6.196;2023-11-19T05:34:18;36.47;;;6.60;;
14040;SDS011;7095;51.388;6.196;2023-11-19T05:36:46;29.17;;;6.60;;
14040;SDS011;7095;51.388;6.196;2023-11-19T05:39:15;39.13;;;7.67;;
14040;SDS011;7095;51.388;6.196;2023-11-19T05:41:45;48.17;;;7.47;;
14040;SDS011;7095;51.388;6.196;2023-11-19T05:44:13;35.40;;;7.33;;
14040;SDS011;7095;51.388;6.196;2023-11-19T05:46:42;35.83;;;6.30;;
14040;SDS011;7095;51.388;6.196;2023-11-19T05:49:12;41.00;;;6.10;;
14040;SDS011;7095;51.388;6.196;2023-11-19T05:51:40;40.33;;;6.13;;
14040;SDS011;7095;51.388;6.196;2023-11-19T05:54:09;30.93;;;6.63;;
14040;SDS011;7095;51.388;6.196;2023-11-19T05:56:37;31.53;;;5.53;;
14040;SDS011;7095;51.388;6.196;2023-11-19T05:59:05;35.97;;;6.27;;
14040;SDS011;7095;51.388;6.196;2023-11-19T06:01:41;33.43;;;5.30;;
14040;SDS011;7095;51.388;6.196;2023-11-19T06:04:11;30.03;;;6.63;;
14040;SDS011;7095;51.388;6.196;2023-11-19T06:06:40;32.37;;;6.00;;
14040;SDS011;7095;51.388;6.196;2023-11-19T06:09:08;44.67;;;7.70;;
14040;SDS011;7095;51.388;6.196;2023-11-19T06:11:40;33.47;;;6.43;;
14040;SDS011;7095;51.388;6.196;2023-11-19T06:14:08;37.23;;;6.13;;
14040;SDS011;7095;51.388;6.196;2023-11-19T06:16:36;37.67;;;6.90;;
14040;SDS011;7095;51.388;6.196;2023-11-19T06:19:07;42.77;;;7.80;;
14040;SDS011;7095;51.388;6.196;2023-11-19T06:21:38;37.43;;;6.33;;
14040;SDS011;7095;51.388;6.196;2023-11-19T06:24:06;33.07;;;6.97;;
14040;SDS011;7095;51.388;6.196;2023-11-19T06:26:35;37.33;;;7.20;;
14040;SDS011;7095;51.388;6.196;2023-11-19T06:29:04;29.17;;;6.00;;
14040;SDS011;7095;51.388;6.196;2023-11-19T06:31:32;41.40;;;6.77;;
14040;SDS011;7095;51.388;6.196;2023-11-19T06:34:00;46.73;;;7.27;;
14040;SDS011;7095;51.388;6.196;2023-11-19T06:36:29;28.63;;;6.43;;
14040;SDS011;7095;51.388;6.196;2023-11-19T06:38:58;40.70;;;7.50;;
14040;SDS011;7095;51.388;6.196;2023-11-19T06:41:26;44.00;;;8.23;;
14040;SDS011;7095;51.388;6.196;2023-11-19T06:43:55;41.23;;;6.73;;
14040;SDS011;7095;51.388;6.196;2023-11-19T06:46:23;35.03;;;6.13;;
14040;SDS011;7095;51.388;6.196;2023-11-19T06:48:51;32.87;;;6.83;;
14040;SDS011;7095;51.388;6.196;2023-11-19T06:51:20;33.67;;;6.27;;
14040;SDS011;7095;51.388;6.196;2023-11-19T06:53:48;42.53;;;7.03;;
14040;SDS011;7095;51.388;6.196;2023-11-19T06:56:21;40.97;;;7.63;;
14040;SDS011;7095;51.388;6.196;2023-11-19T06:58:50;34.57;;;6.73;;
14040;SDS011;7095;51.388;6.196;2023-11-19T07:01:17;45.97;;;8.57;;
14040;SDS011;7095;51.388;6.196;2023-11-19T07:03:47;33.80;;;6.73;;
14040;SDS011;7095;51.388;6.196;2023-11-19T07:06:16;33.47;;;5.80;;
14040;SDS011;7095;51.388;6.196;2023-11-19T07:08:45;42.40;;;6.60;;
14040;SDS011;7095;51.388;6.196;2023-11-19T07:11:13;36.83;;;6.13;;
14040;SDS011;7095;51.388;6.196;2023-11-19T07:13:45;35.93;;;6.17;;
14040;SDS011;7095;51.388;6.196;2023-11-19T07:16:14;33.43;;;6.73;;
14040;SDS011;7095;51.388;6.196;2023-11-19T07:18:42;35.57;;;6.43;;
14040;SDS011;7095;51.388;6.196;2023-11-19T07:21:11;38.43;;;5.97;;
14040;SDS011;7095;51.388;6.196;2023-11-19T07:23:39;37.53;;;6.43;;
14040;SDS011;7095;51.388;6.196;2023-11-19T07:26:08;36.90;;;6.93;;
14040;SDS011;7095;51.388;6.196;2023-11-19T07:28:37;35.23;;;6.90;;
14040;SDS011;7095;51.388;6.196;2023-11-19T07:31:08;45.17;;;6.70;;
14040;SDS011;7095;51.388;6.196;2023-11-19T07:33:36;33.33;;;6.63;;
14040;SDS011;7095;51.388;6.196;2023-11-19T07:36:05;34.30;;;7.30;;
14040;SDS011;7095;51.388;6.196;2023-11-19T07:38:34;28.07;;;5.83;;
14040;SDS011;7095;51.388;6.196;2023-11-19T07:41:03;29.00;;;7.23;;
14040;SDS011;7095;51.388;6.196;2023-11-19T07:43:32;41.10;;;7.40;;
14040;SDS011;7095;51.388;6.196;2023-11-19T07:46:00;48.97;;;8.40;;
14040;SDS011;7095;51.388;6.196;2023-11-19T07:48:30;35.67;;;6.63;;
14040;SDS011;7095;51.388;6.196;2023-11-19T07:50:58;39.57;;;6.93;;
14040;SDS011;7095;51.388;6.196;2023-11-19T07:53:26;44.03;;;7.10;;
14040;SDS011;7095;51.388;6.196;2023-11-19T07:55:55;48.53;;;7.70;;
14040;SDS011;7095;51.388;6.196;2023-11-19T07:58:23;37.67;;;6.63;;
14040;SDS011;7095;51.388;6.196;2023-11-19T08:00:51;34.83;;;8.13;;
14040;SDS011;7095;51.388;6.196;2023-11-19T08:03:20;30.60;;;6.90;;
14040;SDS011;7095;51.388;6.196;2023-11-19T08:05:51;37.00;;;6.67;;
14040;SDS011;7095;51.388;6.196;2023-11-19T08:08:19;37.27;;;8.50;;
14040;SDS011;7095;51.388;6.196;2023-11-19T08:10:48;33.07;;;6.43;;
14040;SDS011;7095;51.388;6.196;2023-11-19T08:13:18;41.23;;;7.00;;
14040;SDS011;7095;51.388;6.196;2023-11-19T08:15:47;39.10;;;7.37;;
14040;SDS011;7095;51.388;6.196;2023-11-19T08:18:16;38.30;;;7.33;;
14040;SDS011;7095;51.388;6.196;2023-11-19T08:20:45;42.90;;;7.57;;
14040;SDS011;7095;51.388;6.196;2023-11-19T08:23:17;39.43;;;7.17;;
14040;SDS011;7095;51.388;6.196;2023-11-19T08:25:46;37.13;;;6.90;;
14040;SDS011;7095;51.388;6.196;2023-11-19T08:28:14;40.37;;;6.50;;
14040;SDS011;7095;51.388;6.196;2023-11-19T08:30:42;39.93;;;7.30;;
14040;SDS011;7095;51.388;6.196;2023-11-19T08:33:11;38.17;;;7.47;;
14040;SDS011;7095;51.388;6.196;2023-11-19T08:35:39;35.20;;;6.50;;
14040;SDS011;7095;51.388;6.196;2023-11-19T08:38:07;28.67;;;5.33;;
14040;SDS011;7095;51.388;6.196;2023-11-19T08:40:37;33.67;;;6.50;;
14040;SDS011;7095;51.388;6.196;2023-11-19T08:43:06;34.00;;;6.40;;
14040;SDS011;7095;51.388;6.196;2023-11-19T08:45:34;41.17;;;8.07;;
14040;SDS011;7095;51.388;6.196;2023-11-19T08:48:03;36.30;;;7.00;;
14040;SDS011;7095;51.388;6.196;2023-11-19T08:50:31;29.93;;;6.77;;
14040;SDS011;7095;51.388;6.196;2023-11-19T08:53:00;39.07;;;7.33;;
14040;SDS011;7095;51.388;6.196;2023-11-19T08:55:28;35.90;;;6.43;;
14040;SDS011;7095;51.388;6.196;2023-11-19T08:57:58;41.77;;;7.43;;
14040;SDS011;7095;51.388;6.196;2023-11-19T09:00:26;39.37;;;7.37;;
14040;SDS011;7095;51.388;6.196;2023-11-19T09:02:54;41.43;;;7.03;;
14040;SDS011;7095;51.388;6.196;2023-11-19T09:05:23;33.77;;;5.50;;
14040;SDS011;7095;51.388;6.196;2023-11-19T09:07:51;37.50;;;6.73;;
14040;SDS011;7095;51.388;6.196;2023-11-19T09:10:25;41.23;;;6.80;;
14040;SDS011;7095;51.388;6.196;2023-11-19T09:12:53;39.47;;;6.53;;
14040;SDS011;7095;51.388;6.196;2023-11-19T09:15:26;33.67;;;6.57;;
14040;SDS011;7095;51.388;6.196;2023-11-19T09:17:54;35.17;;;6.47;;
14040;SDS011;7095;51.388;6.196;2023-11-19T09:20:23;40.00;;;6.83;;
14040;SDS011;7095;51.388;6.196;2023-11-19T09:22:51;35.90;;;6.87;;
14040;SDS011;7095;51.388;6.196;2023-11-19T09:25:20;32.73;;;6.10;;
14040;SDS011;7095;51.388;6.196;2023-11-19T09:27:48;32.70;;;6.83;;
14040;SDS011;7095;51.388;6.196;2023-11-19T09:30:17;36.93;;;6.23;;
14040;SDS011;7095;51.388;6.196;2023-11-19T09:32:46;41.37;;;6.70;;
14040;SDS011;7095;51.388;6.196;2023-11-19T09:35:15;31.33;;;6.67;;
14040;SDS011;7095;51.388;6.196;2023-11-19T09:37:43;34.60;;;7.73;;
14040;SDS011;7095;51.388;6.196;2023-11-19T09:40:11;29.33;;;6.60;;
14040;SDS011;7095;51.388;6.196;2023-11-19T09:42:42;32.70;;;6.07;;
14040;SDS011;7095;51.388;6.196;2023-11-19T09:45:12;33.77;;;6.73;;
14040;SDS011;7095;51.388;6.196;2023-11-19T09:47:42;44.80;;;7.80;;
14040;SDS011;7095;51.388;6.196;2023-11-19T09:50:14;30.17;;;6.47;;
14040;SDS011;7095;51.388;6.196;2023-11-19T09:52:44;37.30;;;7.03;;
14040;SDS011;7095;51.388;6.196;2023-11-19T09:55:13;30.83;;;6.47;;
14040;SDS011;7095;51.388;6.196;2023-11-19T09:57:42;32.73;;;6.97;;
14040;SDS011;7095;51.388;6.196;2023-11-19T10:00:11;40.40;;;8.27;;
14040;SDS011;7095;51.388;6.196;2023-11-19T10:02:45;34.87;;;7.27;;
14040;SDS011;7095;51.388;6.196;2023-11-19T10:05:16;31.97;;;7.03;;
14040;SDS011;7095;51.388;6.196;2023-11-19T10:07:44;30.70;;;6.43;;
14040;SDS011;7095;51.388;6.196;2023-11-19T10:10:13;34.17;;;7.00;;
14040;SDS011;7095;51.388;6.196;2023-11-19T10:12:45;35.07;;;7.43;;
14040;SDS011;7095;51.388;6.196;2023-11-19T10:15:20;40.43;;;7.30;;
14040;SDS011;7095;51.388;6.196;2023-11-19T10:17:48;36.47;;;7.30;;
14040;SDS011;7095;51.388;6.196;2023-11-19T10:20:18;30.47;;;7.17;;
14040;SDS011;7095;51.388;6.196;2023-11-19T10:22:46;36.63;;;6.13;;
14040;SDS011;7095;51.388;6.196;2023-11-19T10:25:21;36.00;;;6.33;;
14040;SDS011;7095;51.388;6.196;2023-11-19T10:27:50;32.10;;;6.57;;
14040;SDS011;7095;51.388;6.196;2023-11-19T10:30:21;33.57;;;6.70;;
14040;SDS011;7095;51.388;6.196;2023-11-19T10:33:05;36.20;;;7.03;;
14040;SDS011;7095;51.388;6.196;2023-11-19T10:35:36;32.80;;;8.00;;
14040;SDS011;7095;51.388;6.196;2023-11-19T10:38:13;37.30;;;6.50;;
14040;SDS011;7095;51.388;6.196;2023-11-19T10:40:42;24.93;;;6.00;;
14040;SDS011;7095;51.388;6.196;2023-11-19T10:43:11;29.73;;;6.53;;
14040;SDS011;7095;51.388;6.196;2023-11-19T10:45:40;32.70;;;7.10;;
14040;SDS011;7095;51.388;6.196;2023-11-19T10:48:09;29.23;;;6.80;;
14040;SDS011;7095;51.388;6.196;2023-11-19T10:50:42;38.83;;;6.70;;
14040;SDS011;7095;51.388;6.196;2023-11-19T10:53:10;27.53;;;6.47;;
14040;SDS011;7095;51.388;6.196;2023-11-19T10:55:40;37.30;;;7.80;;
14040;SDS011;7095;51.388;6.196;2023-11-19T10:58:09;29.63;;;6.00;;
14040;SDS011;7095;51.388;6.196;2023-11-19T11:00:38;30.07;;;5.90;;
14040;SDS011;7095;51.388;6.196;2023-11-19T11:03:09;31.13;;;7.00;;
14040;SDS011;7095;51.388;6.196;2023-11-19T11:05:39;27.93;;;6.63;;
14040;SDS011;7095;51.388;6.196;2023-11-19T11:08:10;30.20;;;5.73;;
14040;SDS011;7095;51.388;6.196;2023-11-19T11:10:42;33.57;;;6.27;;
14040;SDS011;7095;51.388;6.196;2023-11-19T11:13:15;27.33;;;6.20;;
14040;SDS011;7095;51.388;6.196;2023-11-19T11:15:44;30.33;;;5.83;;
14040;SDS011;7095;51.388;6.196;2023-11-19T11:18:14;28.37;;;6.23;;
14040;SDS011;7095;51.388;6.196;2023-11-19T11:20:44;26.50;;;5.67;;
14040;SDS011;7095;51.388;6.196;2023-11-19T11:23:20;28.50;;;6.13;;
14040;SDS011;7095;51.388;6.196;2023-11-19T11:26:01;30.03;;;5.57;;
14040;SDS011;7095;51.388;6.196;2023-11-19T11:28:35;35.60;;;8.40;;
14040;SDS011;7095;51.388;6.196;2023-11-19T11:31:09;32.47;;;6.13;;
14040;SDS011;7095;51.388;6.196;2023-11-19T11:33:43;28.53;;;6.07;;
14040;SDS011;7095;51.388;6.196;2023-11-19T11:36:30;28.70;;;5.73;;
14040;SDS011;7095;51.388;6.196;2023-11-19T11:39:01;28.57;;;6.30;;
14040;SDS011;7095;51.388;6.196;2023-11-19T11:41:34;25.83;;;5.90;;
14040;SDS011;7095;51.388;6.196;2023-11-19T11:44:03;32.83;;;6.77;;
14040;SDS011;7095;51.388;6.196;2023-11-19T11:49:23;31.13;;;6.30;;
14040;SDS011;7095;51.388;6.196;2023-11-19T11:51:59;27.67;;;5.40;;
14040;SDS011;7095;51.388;6.196;2023-11-19T11:54:29;23.63;;;6.30;;
14040;SDS011;7095;51.388;6.196;2023-11-19T11:57:03;24.60;;;6.67;;
14040;SDS011;7095;51.388;6.196;2023-11-19T11:59:42;28.67;;;6.00;;
14040;SDS011;7095;51.388;6.196;2023-11-19T12:02:11;25.47;;;5.17;;
14040;SDS011;7095;51.388;6.196;2023-11-19T12:04:40;30.53;;;7.80;;
14040;SDS011;7095;51.388;6.196;2023-11-19T12:07:11;21.73;;;5.43;;
14040;SDS011;7095;51.388;6.196;2023-11-19T12:09:41;33.47;;;6.70;;
14040;SDS011;7095;51.388;6.196;2023-11-19T12:12:18;27.57;;;5.43;;
14040;SDS011;7095;51.388;6.196;2023-11-19T12:15:00;30.43;;;5.97;;
14040;SDS011;7095;51.388;6.196;2023-11-19T12:17:36;31.43;;;6.20;;
14040;SDS011;7095;51.388;6.196;2023-11-19T12:20:06;25.00;;;6.50;;
14040;SDS011;7095;51.388;6.196;2023-11-19T12:22:36;25.97;;;5.73;;
14040;SDS011;7095;51.388;6.196;2023-11-19T12:25:07;22.37;;;5.60;;
14040;SDS011;7095;51.388;6.196;2023-11-19T12:27:36;20.27;;;5.40;;
14040;SDS011;7095;51.388;6.196;2023-11-19T12:30:05;27.10;;;5.60;;
14040;SDS011;7095;51.388;6.196;2023-11-19T12:32:38;29.23;;;6.60;;
14040;SDS011;7095;51.388;6.196;2023-11-19T12:35:08;17.20;;;4.40;;
14040;SDS011;7095;51.388;6.196;2023-11-19T12:37:41;24.87;;;5.63;;
14040;SDS011;7095;51.388;6.196;2023-11-19T12:40:12;26.00;;;6.40;;
14040;SDS011;7095;51.388;6.196;2023-11-19T12:42:41;29.53;;;5.53;;
14040;SDS011;7095;51.388;6.196;2023-11-19T12:45:09;27.03;;;5.30;;
14040;SDS011;7095;51.388;6.196;2023-11-19T12:47:38;28.80;;;5.43;;
14040;SDS011;7095;51.388;6.196;2023-11-19T12:50:08;25.60;;;5.20;;
14040;SDS011;7095;51.388;6.196;2023-11-19T12:52:36;33.17;;;6.53;;
14040;SDS011;7095;51.388;6.196;2023-11-19T12:55:05;24.47;;;5.57;;
14040;SDS011;7095;51.388;6.196;2023-11-19T12:57:39;30.77;;;6.47;;
14040;SDS011;7095;51.388;6.196;2023-11-19T13:00:17;33.33;;;6.53;;
14040;SDS011;7095;51.388;6.196;2023-11-19T13:02:48;24.87;;;5.73;;
14040;SDS011;7095;51.388;6.196;2023-11-19T13:05:20;26.43;;;5.73;;
14040;SDS011;7095;51.388;6.196;2023-11-19T13:07:49;28.30;;;5.83;;
14040;SDS011;7095;51.388;6.196;2023-11-19T13:10:17;30.40;;;5.67;;
14040;SDS011;7095;51.388;6.196;2023-11-19T13:13:00;26.87;;;5.47;;
14040;SDS011;7095;51.388;6.196;2023-11-19T13:15:29;30.13;;;5.90;;
14040;SDS011;7095;51.388;6.196;2023-11-19T13:17:57;23.73;;;4.50;;
14040;SDS011;7095;51.388;6.196;2023-11-19T13:20:25;28.10;;;5.73;;
14040;SDS011;7095;51.388;6.196;2023-11-19T13:22:55;28.67;;;5.60;;
14040;SDS011;7095;51.388;6.196;2023-11-19T13:25:23;27.93;;;5.13;;
14040;SDS011;7095;51.388;6.196;2023-11-19T13:27:52;26.23;;;6.07;;
14040;SDS011;7095;51.388;6.196;2023-11-19T13:30:22;21.33;;;5.27;;
14040;SDS011;7095;51.388;6.196;2023-11-19T13:32:54;24.37;;;5.40;;
14040;SDS011;7095;51.388;6.196;2023-11-19T13:35:23;21.30;;;5.43;;
14040;SDS011;7095;51.388;6.196;2023-11-19T13:37:52;26.97;;;5.13;;
14040;SDS011;7095;51.388;6.196;2023-11-19T13:40:20;33.50;;;6.43;;
14040;SDS011;7095;51.388;6.196;2023-11-19T13:42:51;36.23;;;6.10;;
14040;SDS011;7095;51.388;6.196;2023-11-19T13:45:19;35.83;;;5.93;;
14040;SDS011;7095;51.388;6.196;2023-11-19T13:47:49;31.03;;;5.57;;
14040;SDS011;7095;51.388;6.196;2023-11-19T13:50:17;32.97;;;6.20;;
14040;SDS011;7095;51.388;6.196;2023-11-19T13:52:46;34.40;;;8.17;;
14040;SDS011;7095;51.388;6.196;2023-11-19T13:55:15;30.87;;;5.87;;
14040;SDS011;7095;51.388;6.196;2023-11-19T13:57:43;34.37;;;6.80;;
14040;SDS011;7095;51.388;6.196;2023-11-19T14:00:11;31.37;;;5.43;;
14040;SDS011;7095;51.388;6.196;2023-11-19T14:02:41;29.10;;;5.30;;
14040;SDS011;7095;51.388;6.196;2023-11-19T14:05:11;22.03;;;4.80;;
14040;SDS011;7095;51.388;6.196;2023-11-19T14:07:39;31.70;;;5.03;;
14040;SDS011;7095;51.388;6.196;2023-11-19T14:10:08;26.80;;;4.50;;
14040;SDS011;7095;51.388;6.196;2023-11-19T14:12:37;25.73;;;5.57;;
14040;SDS011;7095;51.388;6.196;2023-11-19T14:15:07;23.93;;;4.47;;
14040;SDS011;7095;51.388;6.196;2023-11-19T14:17:36;21.83;;;4.40;;
14040;SDS011;7095;51.388;6.196;2023-11-19T14:20:05;18.33;;;4.63;;
14040;SDS011;7095;51.388;6.196;2023-11-19T14:22:41;26.57;;;5.73;;
14040;SDS011;7095;51.388;6.196;2023-11-19T14:25:09;29.03;;;5.97;;
14040;SDS011;7095;51.388;6.196;2023-11-19T14:27:37;18.47;;;4.70;;
14040;SDS011;7095;51.388;6.196;2023-11-19T14:30:06;29.27;;;5.67;;
14040;SDS011;7095;51.388;6.196;2023-11-19T14:32:35;28.00;;;6.13;;
14040;SDS011;7095;51.388;6.196;2023-11-19T14:35:03;29.13;;;6.07;;
14040;SDS011;7095;51.388;6.196;2023-11-19T14:37:31;28.63;;;5.80;;
14040;SDS011;7095;51.388;6.196;2023-11-19T14:40:01;27.77;;;5.10;;
14040;SDS011;7095;51.388;6.196;2023-11-19T14:42:32;25.47;;;6.57;;
14040;SDS011;7095;51.388;6.196;2023-11-19T14:45:00;25.37;;;6.20;;
14040;SDS011;7095;51.388;6.196;2023-11-19T14:47:29;31.97;;;5.83;;
14040;SDS011;7095;51.388;6.196;2023-11-19T14:49:57;41.43;;;7.33;;
14040;SDS011;7095;51.388;6.196;2023-11-19T14:52:26;33.87;;;6.07;;
14040;SDS011;7095;51.388;6.196;2023-11-19T14:54:54;31.17;;;6.83;;
14040;SDS011;7095;51.388;6.196;2023-11-19T14:57:25;34.47;;;7.40;;
14040;SDS011;7095;51.388;6.196;2023-11-19T14:59:53;31.00;;;6.83;;
14040;SDS011;7095;51.388;6.196;2023-11-19T15:02:21;25.97;;;5.77;;
14040;SDS011;7095;51.388;6.196;2023-11-19T15:04:49;29.13;;;6.23;;